createdAt,value
2019-03-10T00:03:08.945Z,99483.63
2019-03-10T00:08:27.574Z,99494.62
2019-03-10T00:13:46.277Z,99491.91
2019-03-10T00:19:04.881Z,99483.19
2019-03-10T00:24:23.526Z,99461.44
2019-03-10T00:29:42.210Z,99435.86
2019-03-10T00:35:01.207Z,99434.05
2019-03-10T00:40:45.502Z,99443.17
2019-03-10T00:46:21.470Z,99432.53
2019-03-10T00:52:01.190Z,99435.81
2019-03-10T00:57:19.827Z,99425.26
2019-03-10T01:02:38.438Z,99422.87
2019-03-10T01:07:57.412Z,99421.87
2019-03-10T01:13:16.051Z,99406.68
2019-03-10T01:18:35.978Z,99406.10
2019-03-10T01:23:54.620Z,99402.03
2019-03-10T01:29:13.291Z,99389.34
2019-03-10T01:34:40.770Z,99365.16
2019-03-10T01:39:59.392Z,99360.75
2019-03-10T01:45:18.002Z,99336.00
2019-03-10T01:50:36.617Z,99332.86
2019-03-10T01:55:55.330Z,99300.55
2019-03-10T02:01:13.946Z,99291.45
2019-03-10T02:06:32.404Z,99270.42
2019-03-10T02:11:51.019Z,99273.64
2019-03-10T02:17:09.905Z,99259.45
2019-03-10T02:22:28.465Z,99243.83
2019-03-10T02:27:47.158Z,99239.05
2019-03-10T02:33:05.767Z,99217.75
2019-03-10T02:38:24.606Z,99200.50
2019-03-10T02:43:43.155Z,99176.02
2019-03-10T02:49:01.725Z,99153.97
2019-03-10T02:54:20.233Z,99143.08
2019-03-10T02:59:38.793Z,99142.56
2019-03-10T03:04:57.430Z,99131.98
2019-03-10T03:10:16.059Z,99115.42
2019-03-10T03:15:34.607Z,99108.81
2019-03-10T03:20:53.248Z,99091.52
2019-03-10T03:26:11.855Z,99073.03
2019-03-10T03:31:30.503Z,99053.46
2019-03-10T03:36:49.122Z,99044.79
2019-03-10T03:42:07.730Z,99030.55
2019-03-10T03:47:26.284Z,99015.96
2019-03-10T03:52:44.917Z,98999.55
2019-03-10T03:58:03.568Z,98997.89
2019-03-10T04:03:22.199Z,98983.03
2019-03-10T04:08:40.760Z,98957.66
2019-03-10T04:13:59.384Z,98942.78
2019-03-10T04:19:18.066Z,98927.17
2019-03-10T04:24:36.607Z,98911.80
2019-03-10T04:29:55.154Z,98889.84
2019-03-10T04:35:13.822Z,98866.86
2019-03-10T04:40:32.377Z,98865.14
2019-03-10T04:45:50.986Z,98850.06
2019-03-10T04:51:09.531Z,98831.00
2019-03-10T04:56:29.776Z,98815.52
2019-03-10T05:01:48.413Z,98800.92
2019-03-10T05:07:10.123Z,98786.30
2019-03-10T05:12:28.759Z,98778.32
2019-03-10T05:17:47.381Z,98757.66
2019-03-10T05:23:29.911Z,98749.85
2019-03-10T05:28:48.533Z,98739.05
2019-03-10T05:34:08.789Z,98729.20
2019-03-10T05:39:27.434Z,98705.52
2019-03-10T05:44:46.061Z,98683.05
2019-03-10T05:50:06.170Z,98659.97
2019-03-10T05:55:24.726Z,98644.08
2019-03-10T06:00:43.527Z,98636.37
2019-03-10T06:06:02.070Z,98624.22
2019-03-10T06:11:20.697Z,98592.64
2019-03-10T06:16:39.255Z,98569.97
2019-03-10T06:21:57.880Z,98554.69
2019-03-10T06:27:16.505Z,98561.98
2019-03-10T06:32:34.990Z,98554.72
2019-03-10T06:37:53.481Z,98551.27
2019-03-10T06:43:11.986Z,98511.01
2019-03-10T06:48:30.543Z,98498.45
2019-03-10T06:53:49.078Z,98481.96
2019-03-10T06:59:07.801Z,98496.33
2019-03-10T07:04:26.284Z,98457.08
2019-03-10T07:09:44.845Z,98436.55
2019-03-10T07:15:03.826Z,98421.51
2019-03-10T07:20:22.650Z,98418.06
2019-03-10T07:25:41.443Z,98398.55
2019-03-10T07:31:04.125Z,98367.33
2019-03-10T07:36:27.039Z,98357.81
2019-03-10T07:41:53.185Z,98332.16
2019-03-10T07:47:19.364Z,98312.70
2019-03-10T07:52:45.820Z,98301.42
2019-03-10T07:58:09.018Z,98282.59
2019-03-10T08:03:37.780Z,98279.38
2019-03-10T08:09:14.253Z,98270.75
2019-03-10T08:14:37.478Z,98258.55
2019-03-10T08:19:57.799Z,98257.58
2019-03-10T08:25:21.095Z,98258.65
2019-03-10T08:30:47.261Z,98248.69
2019-03-10T08:41:47.803Z,98236.67
2019-03-10T08:47:21.417Z,98237.36
2019-03-10T08:52:41.620Z,98229.35
2019-03-10T08:58:18.075Z,98214.85
2019-03-10T09:03:44.055Z,98208.08
2019-03-10T09:09:09.765Z,98187.45
2019-03-10T09:14:30.116Z,98174.84
2019-03-10T09:20:06.494Z,98169.61
2019-03-10T09:25:29.140Z,98156.61
2019-03-10T09:31:01.418Z,98143.93
2019-03-10T09:36:30.467Z,98135.27
2019-03-10T09:41:53.778Z,98126.33
2019-03-10T09:47:13.934Z,98117.10
2019-03-10T09:52:37.201Z,98097.14
2019-03-10T09:58:12.496Z,98097.17
2019-03-10T10:03:44.375Z,98088.28
2019-03-10T10:09:04.676Z,98095.21
2019-03-10T10:14:33.432Z,98081.90
2019-03-10T10:20:05.277Z,98075.83
2019-03-10T10:25:25.558Z,98072.34
2019-03-10T10:30:54.517Z,98065.95
2019-03-10T10:36:31.030Z,98054.98
2019-03-10T10:42:00.429Z,98063.41
2019-03-10T10:47:20.663Z,98055.47
2019-03-10T10:52:43.689Z,98052.42
2019-03-10T10:58:13.129Z,98054.16
2019-03-10T11:03:36.082Z,98040.67
2019-03-10T11:09:14.064Z,98018.03
2019-03-10T11:14:43.153Z,98036.52
2019-03-10T11:20:03.429Z,98017.08
2019-03-10T11:25:23.634Z,98014.50
2019-03-10T11:30:46.545Z,98011.14
2019-03-10T11:36:15.880Z,98023.65
2019-03-10T11:41:36.108Z,98019.05
2019-03-10T11:46:59.154Z,98018.09
2019-03-10T11:52:22.135Z,98000.55
2019-03-10T11:57:42.589Z,97991.69
2019-03-10T12:03:05.621Z,97999.06
2019-03-10T12:08:25.823Z,98023.11
2019-03-10T12:13:47.863Z,98011.69
2019-03-10T12:19:06.528Z,97993.20
2019-03-10T12:24:25.171Z,97987.83
2019-03-10T12:29:43.815Z,98008.88
2019-03-10T12:35:02.402Z,98004.44
2019-03-10T12:40:20.881Z,98024.56
2019-03-10T12:45:39.440Z,98036.41
2019-03-10T12:50:57.985Z,98026.66
2019-03-10T12:56:16.531Z,98031.22
2019-03-10T13:01:35.186Z,98042.32
2019-03-10T13:06:53.824Z,98022.25
2019-03-10T13:12:12.471Z,98046.50
2019-03-10T13:17:31.110Z,98024.84
2019-03-10T13:22:49.560Z,98031.70
2019-03-10T13:28:08.188Z,98026.01
2019-03-10T13:33:26.776Z,98052.67
2019-03-10T13:38:45.777Z,98039.05
2019-03-10T13:44:07.324Z,98032.09
2019-03-10T13:49:25.870Z,98048.20
2019-03-10T13:54:44.411Z,98065.31
2019-03-10T14:00:03.114Z,98092.95
2019-03-10T14:05:21.744Z,98148.41
2019-03-10T14:10:40.418Z,98158.33
2019-03-10T14:15:59.522Z,98146.08
2019-03-10T14:21:18.183Z,98170.13
2019-03-10T14:26:36.815Z,98193.59
2019-03-10T14:31:55.432Z,98219.76
2019-03-10T14:37:14.018Z,98226.63
2019-03-10T14:42:32.626Z,98255.17
2019-03-10T14:47:51.532Z,98299.55
2019-03-10T14:53:10.073Z,98312.31
2019-03-10T14:58:28.608Z,98337.88
2019-03-10T15:03:47.227Z,98355.88
2019-03-10T15:09:07.619Z,98356.13
2019-03-10T15:14:26.266Z,98381.33
2019-03-10T15:19:45.850Z,98434.44
2019-03-10T15:25:06.749Z,98445.38
2019-03-10T15:30:26.574Z,98449.05
2019-03-10T15:35:45.244Z,98478.52
2019-03-10T15:41:03.772Z,98484.58
2019-03-10T15:46:23.401Z,98488.09
2019-03-10T15:51:42.154Z,98508.02
2019-03-10T15:57:02.425Z,98535.80
2019-03-10T16:02:21.120Z,98567.02
2019-03-10T16:07:39.739Z,98575.67
2019-03-10T16:12:58.342Z,98627.23
2019-03-10T16:18:16.889Z,98651.70
2019-03-10T16:23:36.411Z,98656.84
2019-03-10T16:28:55.045Z,98669.89
2019-03-10T16:34:15.860Z,98719.69
2019-03-10T16:39:34.651Z,98764.05
2019-03-10T16:44:54.439Z,98776.92
2019-03-10T16:50:15.910Z,98824.36
2019-03-10T16:55:34.522Z,98851.86
2019-03-10T17:00:53.137Z,98866.81
2019-03-10T17:06:11.792Z,98919.78
2019-03-10T17:11:30.381Z,98939.38
2019-03-10T17:16:49.075Z,98962.44
2019-03-10T17:22:07.700Z,98965.36
2019-03-10T17:27:26.730Z,98978.27
2019-03-10T17:32:45.333Z,98990.77
2019-03-10T17:38:03.966Z,99007.41
2019-03-10T17:43:23.975Z,99020.66
2019-03-10T17:48:42.471Z,99028.58
2019-03-10T17:54:01.137Z,99046.97
2019-03-10T17:59:20.003Z,99053.63
2019-03-10T18:04:38.534Z,99069.75
2019-03-10T18:09:57.178Z,99078.45
2019-03-10T18:15:19.156Z,99069.58
2019-03-10T18:20:37.882Z,99066.98
2019-03-10T18:25:56.712Z,99092.48
2019-03-10T18:31:15.402Z,99096.40
2019-03-10T18:36:33.886Z,99088.27
2019-03-10T18:41:52.536Z,99099.23
2019-03-10T18:47:11.396Z,99115.09
2019-03-10T18:52:30.196Z,99159.97
2019-03-10T18:57:48.878Z,99185.77
2019-03-10T19:03:07.696Z,99174.89
2019-03-10T19:08:26.399Z,99195.17
2019-03-10T19:13:46.489Z,99225.72
2019-03-10T19:19:05.101Z,99243.02
2019-03-10T19:24:23.670Z,99266.56
2019-03-10T19:29:42.211Z,99281.58
2019-03-10T19:35:01.324Z,99286.84
2019-03-10T19:40:21.925Z,99304.34
2019-03-10T19:45:40.469Z,99327.84
2019-03-10T19:50:59.082Z,99327.84
2019-03-10T19:56:17.626Z,99338.84
2019-03-10T20:01:37.090Z,99337.47
2019-03-10T20:06:55.564Z,99336.91
2019-03-10T20:12:14.194Z,99337.02
2019-03-10T20:17:32.923Z,99333.71
2019-03-10T20:22:51.533Z,99351.77
2019-03-10T20:28:10.256Z,99380.16
2019-03-10T20:33:28.914Z,99420.86
2019-03-10T20:38:47.529Z,99425.05
2019-03-10T20:44:06.131Z,99397.86
2019-03-10T20:49:27.503Z,99376.09
2019-03-10T20:54:46.127Z,99377.41
2019-03-10T21:00:08.368Z,99382.77
2019-03-10T21:05:26.951Z,99408.24
2019-03-10T21:10:45.568Z,99396.90
2019-03-10T21:16:04.571Z,99400.74
2019-03-10T21:21:23.288Z,99400.74
2019-03-10T21:26:41.916Z,99402.34
2019-03-10T21:32:00.738Z,99411.65
2019-03-10T21:37:19.435Z,99416.73
2019-03-10T21:42:38.059Z,99402.53
2019-03-10T21:47:56.810Z,99413.50
2019-03-10T21:53:15.320Z,99418.78
2019-03-10T21:58:33.859Z,99422.52
2019-03-10T22:03:52.575Z,99432.20
2019-03-10T22:09:11.338Z,99423.09
2019-03-10T22:14:29.986Z,99431.95
2019-03-10T22:19:48.551Z,99417.66
2019-03-10T22:25:12.883Z,99418.09
2019-03-10T22:30:28.479Z,99428.75
2019-03-10T22:35:47.090Z,99417.62
2019-03-10T22:41:05.717Z,99435.78
2019-03-10T22:46:24.178Z,99428.25
2019-03-10T22:51:42.723Z,99428.79
2019-03-10T22:57:01.555Z,99436.87
2019-03-10T23:02:20.196Z,99429.18
2019-03-10T23:07:39.060Z,99420.67
2019-03-10T23:12:57.864Z,99414.97
2019-03-10T23:18:16.624Z,99407.59
2019-03-10T23:23:35.160Z,99403.67
2019-03-10T23:28:53.789Z,99409.89
2019-03-10T23:34:12.721Z,99411.02
2019-03-10T23:39:31.280Z,99393.35
2019-03-10T23:44:50.111Z,99406.42
2019-03-10T23:50:11.417Z,99380.84
2019-03-10T23:55:29.971Z,99381.95
